Time;durP1;ratioP1;P1;durP2;ratioP2;P2;SDS_P1;SDS_P2;PMS_P1;PMS_P2;Temp;Humidity;BMP_temperature;BMP_pressure;BME280_temperature;BME280_humidity;BME280_pressure;Samples;Min_cycle;Max_cycle;Signal;HPM_P1;HPM_P2
2022/06/27 00:01:29;;;;;;;6.60;3.07;;;19.50;34.20;;;;;;5074483;28;20166;-75
2022/06/27 00:03:55;;;;;;;5.17;3.50;;;19.50;35.80;;;;;;5074900;28;20224;-76
2022/06/27 00:06:21;;;;;;;7.23;3.20;;;19.40;36.50;;;;;;5078454;28;20436;-75
2022/06/27 00:08:48;;;;;;;3.47;3.17;;;19.40;36.70;;;;;;5080058;28;20499;-76
2022/06/27 00:11:15;;;;;;;2.70;2.50;;;19.20;37.60;;;;;;5074753;28;20781;-76
2022/06/27 00:13:40;;;;;;;6.23;3.47;;;19.30;36.60;;;;;;5074788;28;20468;-75
2022/06/27 00:16:06;;;;;;;7.10;3.13;;;19.40;35.70;;;;;;5074576;28;20860;-75
2022/06/27 00:18:32;;;;;;;8.40;3.40;;;19.40;35.70;;;;;;5074576;28;20170;-75
2022/06/27 00:20:58;;;;;;;6.10;3.50;;;19.30;36.60;;;;;;5074161;28;20181;-76
2022/06/27 00:23:23;;;;;;;4.87;3.73;;;19.30;37.40;;;;;;5074871;28;20204;-76
2022/06/27 00:25:49;;;;;;;3.90;3.07;;;19.30;37.10;;;;;;5074523;28;20198;-76
2022/06/27 00:28:15;;;;;;;3.37;3.07;;;19.30;37.40;;;;;;5074640;28;20170;-80
2022/06/27 00:30:41;;;;;;;4.57;3.73;;;19.30;37.40;;;;;;5056412;28;20308;-76
2022/06/27 00:33:07;;;;;;;4.17;3.27;;;19.30;38.30;;;;;;5074510;28;21188;-75
2022/06/27 00:35:33;;;;;;;3.80;3.50;;;19.10;39.50;;;;;;5074361;28;20408;-75
2022/06/27 00:37:59;;;;;;;6.00;3.80;;;19.10;41.10;;;;;;5074374;28;20401;-75
2022/06/27 00:40:25;;;;;;;4.33;3.83;;;19.10;40.60;;;;;;5074952;28;20257;-75
2022/06/27 00:42:50;;;;;;;5.07;3.17;;;19.00;42.00;;;;;;5074336;28;20181;-75
2022/06/27 00:45:16;;;;;;;6.90;3.87;;;19.00;43.50;;;;;;5059589;28;20188;-76
2022/06/27 00:47:41;;;;;;;4.97;3.27;;;18.80;44.70;;;;;;5072692;22;20218;-70
2022/06/27 00:50:08;;;;;;;10.93;3.20;;;18.90;44.40;;;;;;5052139;28;20167;-69
2022/06/27 00:52:34;;;;;;;8.17;4.60;;;18.90;44.70;;;;;;5051895;28;20183;-68
2022/06/27 00:55:00;;;;;;;4.90;3.70;;;19.00;43.70;;;;;;5052066;28;20405;-69
2022/06/27 00:57:28;;;;;;;4.20;3.50;;;19.10;43.60;;;;;;5050790;28;20440;-68
2022/06/27 00:59:53;;;;;;;5.57;4.03;;;19.10;43.10;;;;;;5052184;28;20383;-68
2022/06/27 01:02:19;;;;;;;6.23;4.50;;;19.20;41.60;;;;;;5052067;28;20412;-70
2022/06/27 01:04:45;;;;;;;7.93;4.10;;;19.20;41.80;;;;;;5052014;28;20674;-69
2022/06/27 01:07:11;;;;;;;8.30;4.37;;;19.20;42.90;;;;;;5052136;28;20205;-70
2022/06/27 01:09:37;;;;;;;5.70;3.90;;;19.30;40.50;;;;;;5051091;28;20405;-70
2022/06/27 01:12:04;;;;;;;7.43;4.50;;;19.40;39.60;;;;;;5052036;28;20437;-70
2022/06/27 01:14:30;;;;;;;10.10;4.47;;;19.30;40.00;;;;;;5052424;28;20511;-69
2022/06/27 01:16:56;;;;;;;7.30;4.13;;;19.20;39.30;;;;;;5053327;28;20396;-68
2022/06/27 01:19:22;;;;;;;4.20;3.90;;;19.20;39.50;;;;;;5052640;28;20830;-69
2022/06/27 01:21:49;;;;;;;6.27;3.53;;;19.20;39.60;;;;;;5053779;28;20444;-69
2022/06/27 01:24:16;;;;;;;7.80;4.07;;;19.20;40.20;;;;;;5053668;28;20178;-70
2022/06/27 01:26:43;;;;;;;7.30;4.60;;;19.20;39.90;;;;;;5051927;28;20407;-70
2022/06/27 01:29:09;;;;;;;6.90;4.90;;;19.20;39.50;;;;;;5052090;28;20409;-68
2022/06/27 01:31:36;;;;;;;6.70;3.87;;;19.10;39.50;;;;;;5053065;28;20424;-70
2022/06/27 01:34:02;;;;;;;6.37;4.00;;;19.10;40.00;;;;;;5056079;28;20210;-70
2022/06/27 01:36:43;;;;;;;4.33;3.93;;;19.10;40.00;;;;;;5056162;28;20937;-69
2022/06/27 01:39:12;;;;;;;9.20;4.63;;;19.20;40.00;;;;;;5056487;28;20770;-70
2022/06/27 01:41:59;;;;;;;4.70;4.30;;;19.20;41.00;;;;;;5056418;28;20408;-68
2022/06/27 01:44:27;;;;;;;6.53;4.10;;;19.20;41.90;;;;;;5055704;28;20413;-71
2022/06/27 01:47:08;;;;;;;8.30;4.40;;;19.10;43.10;;;;;;5055369;28;20540;-70
2022/06/27 01:49:36;;;;;;;5.10;4.00;;;19.10;44.10;;;;;;5055844;28;20417;-69
2022/06/27 01:52:03;;;;;;;4.50;4.10;;;19.10;44.50;;;;;;5055303;28;20463;-69
2022/06/27 01:54:29;;;;;;;7.20;4.77;;;19.00;45.70;;;;;;5055401;28;20936;-69
2022/06/27 01:56:54;;;;;;;6.00;4.57;;;19.10;47.40;;;;;;5055147;28;20436;-69
2022/06/27 01:59:25;;;;;;;6.00;5.17;;;19.10;48.80;;;;;;5055368;28;20595;-70
2022/06/27 02:01:51;;;;;;;8.20;5.40;;;19.10;50.00;;;;;;5055173;28;20163;-69
2022/06/27 02:04:17;;;;;;;6.77;5.00;;;19.10;50.50;;;;;;5055364;28;20471;-69
2022/06/27 02:06:44;;;;;;;7.00;5.10;;;19.00;51.40;;;;;;5054236;28;20275;-69
2022/06/27 02:09:12;;;;;;;8.43;5.63;;;19.00;52.20;;;;;;5055603;28;20440;-71
2022/06/27 02:11:39;;;;;;;9.13;5.20;;;19.10;52.00;;;;;;5054252;28;20475;-70
2022/06/27 02:14:05;;;;;;;8.27;5.37;;;19.00;52.30;;;;;;5055461;28;20448;-69
2022/06/27 02:16:31;;;;;;;9.27;5.20;;;19.00;53.30;;;;;;5055580;28;20421;-68
2022/06/27 02:18:56;;;;;;;8.77;5.53;;;18.90;54.20;;;;;;5055328;28;20416;-69
2022/06/27 02:21:24;;;;;;;11.90;6.13;;;18.80;55.80;;;;;;5055240;28;20520;-70
2022/06/27 02:23:51;;;;;;;6.27;5.67;;;18.80;56.80;;;;;;5055061;28;20586;-69
2022/06/27 02:26:18;;;;;;;8.43;5.93;;;18.80;57.80;;;;;;5054978;28;20415;-68
2022/06/27 02:28:44;;;;;;;10.10;7.13;;;18.80;59.50;;;;;;5055114;28;20406;-68
2022/06/27 02:31:10;;;;;;;15.93;7.33;;;18.80;60.40;;;;;;5054570;28;20416;-68
2022/06/27 02:33:43;;;;;;;9.90;7.60;;;18.80;61.40;;;;;;5054817;28;20460;-70
2022/06/27 02:36:13;;;;;;;10.57;7.30;;;18.70;61.90;;;;;;5054404;28;20421;-72
2022/06/27 02:38:41;;;;;;;18.37;7.10;;;18.70;63.10;;;;;;5054528;28;20475;-70
2022/06/27 02:41:12;;;;;;;12.27;7.57;;;18.80;62.80;;;;;;5054912;28;20416;-69
2022/06/27 02:43:39;;;;;;;13.67;8.00;;;18.80;63.30;;;;;;5054435;28;20414;-69
2022/06/27 02:46:05;;;;;;;12.63;8.13;;;18.70;64.60;;;;;;5054232;28;20475;-70
2022/06/27 02:48:34;;;;;;;15.37;8.70;;;18.60;66.30;;;;;;5053257;28;20419;-69
2022/06/27 02:51:05;;;;;;;11.27;9.70;;;18.60;67.20;;;;;;5054359;28;20175;-70
2022/06/27 02:53:44;;;;;;;14.33;9.10;;;18.60;69.10;;;;;;5054696;28;20457;-68
2022/06/27 02:56:12;;;;;;;14.00;9.30;;;18.50;71.00;;;;;;5054292;28;20583;-69
2022/06/27 02:58:53;;;;;;;19.60;10.40;;;18.50;72.00;;;;;;5054620;28;20493;-69
2022/06/27 03:01:20;;;;;;;15.50;10.47;;;18.50;73.90;;;;;;5054519;28;20409;-71
2022/06/27 03:03:49;;;;;;;24.53;11.03;;;18.40;75.40;;;;;;5053425;28;20910;-68
2022/06/27 03:06:15;;;;;;;22.10;10.50;;;18.50;74.90;;;;;;5054528;28;20931;-69
2022/06/27 03:08:45;;;;;;;20.40;10.43;;;18.50;74.90;;;;;;5053584;28;20508;-71
2022/06/27 03:11:16;;;;;;;24.63;10.50;;;18.50;75.50;;;;;;5052667;28;20183;-68
2022/06/27 03:13:43;;;;;;;20.97;11.10;;;18.50;76.10;;;;;;5054122;28;20549;-70
2022/06/27 03:16:09;;;;;;;16.47;11.03;;;18.50;76.90;;;;;;5054050;28;20403;-68
2022/06/27 03:18:35;;;;;;;20.50;11.30;;;18.50;78.00;;;;;;5054698;28;20398;-68
2022/06/27 03:21:01;;;;;;;18.77;10.30;;;18.60;75.00;;;;;;5054001;28;20905;-68
2022/06/27 03:23:27;;;;;;;19.20;10.90;;;18.70;72.50;;;;;;5055333;28;20571;-69
2022/06/27 03:25:53;;;;;;;23.80;10.40;;;18.60;72.20;;;;;;5055044;28;20683;-69
2022/06/27 03:28:18;;;;;;;14.00;9.47;;;18.60;72.70;;;;;;5055388;28;20479;-69
2022/06/27 03:30:44;;;;;;;14.17;8.50;;;18.70;70.50;;;;;;5055240;28;20542;-70
2022/06/27 03:33:11;;;;;;;18.43;9.10;;;18.70;68.20;;;;;;5053772;28;20211;-70
2022/06/27 03:35:36;;;;;;;22.17;8.83;;;18.60;68.50;;;;;;5054037;28;20525;-71
2022/06/27 03:38:02;;;;;;;11.43;8.97;;;18.60;69.40;;;;;;5053916;28;20428;-70
2022/06/27 03:40:28;;;;;;;19.90;8.70;;;18.60;67.80;;;;;;5053880;28;20228;-69
2022/06/27 03:42:53;;;;;;;13.60;8.90;;;18.60;68.10;;;;;;5053846;28;20178;-70
2022/06/27 03:45:19;;;;;;;12.87;8.90;;;18.70;67.50;;;;;;5053253;28;20478;-68
2022/06/27 03:47:53;;;;;;;14.53;8.90;;;18.70;66.60;;;;;;5053056;28;20256;-68
2022/06/27 03:50:20;;;;;;;13.07;8.60;;;18.70;65.10;;;;;;5051901;28;20190;-70
2022/06/27 03:52:46;;;;;;;19.40;9.30;;;18.70;65.90;;;;;;5052752;28;20425;-68
2022/06/27 03:55:13;;;;;;;20.73;9.30;;;18.60;66.40;;;;;;5050801;28;20416;-69
2022/06/27 03:57:46;;;;;;;15.50;9.47;;;18.60;66.20;;;;;;5052669;28;20774;-70
2022/06/27 04:00:12;;;;;;;13.93;9.13;;;18.60;67.70;;;;;;5052779;28;20415;-70
2022/06/27 04:02:38;;;;;;;10.47;9.00;;;18.60;67.40;;;;;;5052764;28;20453;-70
2022/06/27 04:05:04;;;;;;;11.93;9.50;;;18.60;67.80;;;;;;5052759;28;20412;-70
2022/06/27 04:07:30;;;;;;;14.03;9.70;;;18.70;67.50;;;;;;5052666;28;20668;-69
2022/06/27 04:09:57;;;;;;;16.93;9.43;;;18.70;67.40;;;;;;5052753;28;20421;-67
2022/06/27 04:12:23;;;;;;;10.93;8.17;;;18.70;69.00;;;;;;5052581;28;20405;-67
2022/06/27 04:14:49;;;;;;;18.53;9.03;;;18.60;69.30;;;;;;5052674;28;20463;-69
2022/06/27 04:17:15;;;;;;;14.40;9.67;;;18.70;71.60;;;;;;5052845;28;20429;-68
2022/06/27 04:19:40;;;;;;;19.63;8.50;;;18.70;70.80;;;;;;5052725;28;20296;-68
2022/06/27 04:22:08;;;;;;;14.67;9.03;;;18.60;72.60;;;;;;5052363;28;20422;-69
2022/06/27 04:24:34;;;;;;;13.30;8.47;;;18.50;76.90;;;;;;5052324;28;20187;-68
2022/06/27 04:27:00;;;;;;;18.50;9.97;;;18.50;78.30;;;;;;5052171;28;20796;-69
2022/06/27 04:29:26;;;;;;;14.10;9.70;;;18.50;78.80;;;;;;5052346;28;20917;-69
2022/06/27 04:31:52;;;;;;;14.17;9.17;;;18.60;77.20;;;;;;5052382;28;20500;-70
2022/06/27 04:34:18;;;;;;;12.70;9.57;;;18.70;76.80;;;;;;5052434;28;20296;-70
2022/06/27 04:36:45;;;;;;;21.30;9.77;;;18.70;75.30;;;;;;5052297;28;20408;-71
2022/06/27 04:39:15;;;;;;;14.83;9.80;;;18.60;75.80;;;;;;5052311;28;20639;-70
2022/06/27 04:41:41;;;;;;;12.90;8.87;;;18.80;75.40;;;;;;5052255;28;20425;-71
2022/06/27 04:44:07;;;;;;;12.50;9.10;;;18.80;74.70;;;;;;5051998;28;20503;-67
2022/06/27 04:46:32;;;;;;;19.23;10.63;;;18.80;74.60;;;;;;5050618;28;20472;-67
2022/06/27 04:48:58;;;;;;;10.57;8.87;;;18.80;75.20;;;;;;5050413;28;20584;-69
2022/06/27 04:51:24;;;;;;;18.33;9.33;;;18.70;74.50;;;;;;5051818;28;20662;-68
2022/06/27 04:53:50;;;;;;;12.47;9.57;;;18.70;76.30;;;;;;5052109;28;20511;-69
2022/06/27 04:56:16;;;;;;;12.97;10.00;;;18.70;77.50;;;;;;5051717;28;20274;-69
2022/06/27 04:58:42;;;;;;;15.30;9.93;;;18.80;76.10;;;;;;5051794;28;20983;-68
2022/06/27 05:01:07;;;;;;;15.27;8.93;;;18.80;75.70;;;;;;5051903;28;20417;-68
2022/06/27 05:03:33;;;;;;;15.13;10.40;;;18.80;72.80;;;;;;5052170;28;20198;-68
2022/06/27 05:05:59;;;;;;;15.50;10.10;;;18.90;71.60;;;;;;5053290;28;20179;-71
2022/06/27 05:08:24;;;;;;;17.20;10.70;;;19.00;70.70;;;;;;5055827;28;20183;-70
2022/06/27 05:10:50;;;;;;;11.57;9.33;;;18.90;71.90;;;;;;5055703;28;20716;-73
2022/06/27 05:13:15;;;;;;;18.13;10.73;;;18.90;73.80;;;;;;5055615;28;20255;-69
2022/06/27 05:15:41;;;;;;;18.07;10.23;;;18.80;73.30;;;;;;5055762;28;20636;-70
2022/06/27 05:18:06;;;;;;;15.27;9.60;;;18.90;71.10;;;;;;5055998;28;20218;-70
2022/06/27 05:20:32;;;;;;;25.20;10.80;;;19.10;70.50;;;;;;5055715;28;20163;-69
2022/06/27 05:23:00;;;;;;;17.20;11.40;;;19.10;70.10;;;;;;5055392;28;20219;-70
2022/06/27 05:25:26;;;;;;;11.10;9.00;;;19.20;69.10;;;;;;5055382;28;20182;-69
2022/06/27 05:27:52;;;;;;;13.70;9.80;;;19.30;69.20;;;;;;5055210;28;20528;-70
2022/06/27 05:30:17;;;;;;;12.97;9.40;;;19.40;68.00;;;;;;5054966;28;20513;-70
2022/06/27 05:32:44;;;;;;;14.17;9.80;;;19.70;65.10;;;;;;5055220;28;20304;-71
2022/06/27 05:35:10;;;;;;;18.37;10.70;;;19.90;63.20;;;;;;5055211;28;20522;-69
2022/06/27 05:37:38;;;;;;;13.03;9.70;;;20.10;59.40;;;;;;5055264;28;21068;-69
2022/06/27 05:40:07;;;;;;;12.40;9.10;;;20.20;56.90;;;;;;5055265;28;20446;-70
2022/06/27 05:42:33;;;;;;;18.83;10.60;;;20.30;55.80;;;;;;5055116;28;20419;-72
2022/06/27 05:44:59;;;;;;;16.03;9.90;;;20.40;55.70;;;;;;5055424;28;20417;-70
2022/06/27 05:47:25;;;;;;;12.20;10.40;;;20.30;55.30;;;;;;5055152;28;20962;-69
2022/06/27 05:49:51;;;;;;;17.93;10.27;;;20.20;56.40;;;;;;5055512;28;20187;-69
2022/06/27 05:52:17;;;;;;;16.97;9.70;;;20.20;57.70;;;;;;5055008;28;20419;-70
2022/06/27 05:54:44;;;;;;;19.23;11.70;;;20.30;56.60;;;;;;5055217;28;20565;-69
2022/06/27 05:57:11;;;;;;;13.70;10.23;;;20.20;56.60;;;;;;5054810;28;20636;-70
2022/06/27 05:59:36;;;;;;;14.80;9.60;;;20.10;56.30;;;;;;5054834;28;20431;-69
2022/06/27 06:02:03;;;;;;;12.83;8.50;;;20.00;55.90;;;;;;5054642;28;20412;-69
2022/06/27 06:04:30;;;;;;;12.93;9.17;;;19.90;57.00;;;;;;5055134;28;20231;-69
2022/06/27 06:06:56;;;;;;;16.33;9.30;;;20.00;56.80;;;;;;5054704;28;20447;-70
2022/06/27 06:09:21;;;;;;;14.70;9.70;;;19.80;58.30;;;;;;5054853;28;20516;-69
2022/06/27 06:11:49;;;;;;;14.00;9.33;;;19.70;59.30;;;;;;5054672;28;20208;-69
2022/06/27 06:14:19;;;;;;;15.10;10.03;;;19.80;59.10;;;;;;5054854;28;20259;-69
2022/06/27 06:16:45;;;;;;;11.90;10.13;;;19.70;60.00;;;;;;5054258;28;20430;-69
2022/06/27 06:19:11;;;;;;;11.43;9.40;;;19.90;56.20;;;;;;5054797;28;20426;-69
2022/06/27 06:21:37;;;;;;;18.47;10.40;;;19.90;56.00;;;;;;5053835;28;20419;-70
2022/06/27 06:24:04;;;;;;;12.83;10.43;;;19.90;56.40;;;;;;5055185;28;20266;-69
2022/06/27 06:26:29;;;;;;;12.40;9.93;;;20.00;56.40;;;;;;5054478;28;20726;-68
2022/06/27 06:28:55;;;;;;;11.20;8.60;;;20.30;52.70;;;;;;5054527;28;20481;-69
2022/06/27 06:31:22;;;;;;;14.57;9.30;;;20.20;54.80;;;;;;5054438;28;20671;-69
2022/06/27 06:33:53;;;;;;;12.47;9.30;;;20.30;53.10;;;;;;5053506;28;20549;-69
2022/06/27 06:36:21;;;;;;;11.10;8.33;;;20.30;53.40;;;;;;5054917;28;20798;-68
2022/06/27 06:38:47;;;;;;;13.40;8.70;;;20.30;53.50;;;;;;5053332;28;20407;-71
2022/06/27 06:41:13;;;;;;;13.80;8.70;;;20.30;51.80;;;;;;5054626;28;20535;-70
2022/06/27 06:43:38;;;;;;;12.63;8.13;;;20.30;51.70;;;;;;5055150;28;20575;-71
2022/06/27 06:46:05;;;;;;;12.20;9.13;;;20.60;50.80;;;;;;5054621;28;20955;-69
2022/06/27 06:48:32;;;;;;;14.50;8.23;;;20.80;45.30;;;;;;5055313;28;20568;-70
2022/06/27 06:50:58;;;;;;;8.93;7.70;;;20.80;45.40;;;;;;5054632;28;20434;-69
2022/06/27 06:53:23;;;;;;;11.37;7.97;;;20.90;43.70;;;;;;5054898;28;20462;-69
2022/06/27 06:55:50;;;;;;;11.13;7.80;;;20.80;44.00;;;;;;5055559;28;20312;-70
2022/06/27 06:58:17;;;;;;;20.53;10.07;;;20.80;45.00;;;;;;5055739;28;20165;-68
2022/06/27 07:00:43;;;;;;;14.20;9.40;;;20.60;46.60;;;;;;5055952;28;20418;-69
2022/06/27 07:03:10;;;;;;;12.83;8.60;;;20.60;47.20;;;;;;5063705;28;20566;-70
2022/06/27 07:05:37;;;;;;;12.37;8.27;;;20.60;47.70;;;;;;5057116;28;20931;-69
2022/06/27 07:08:04;;;;;;;11.87;9.20;;;20.70;46.80;;;;;;5057032;28;20950;-70
2022/06/27 07:10:30;;;;;;;14.70;9.40;;;20.80;45.60;;;;;;5060665;28;20449;-68
2022/06/27 07:12:56;;;;;;;11.93;8.20;;;20.80;44.80;;;;;;5055850;28;20425;-70
2022/06/27 07:15:22;;;;;;;17.60;8.77;;;20.80;44.70;;;;;;5055137;28;20763;-70
2022/06/27 07:17:51;;;;;;;9.33;8.00;;;20.90;45.10;;;;;;5054704;28;20829;-70
2022/06/27 07:20:20;;;;;;;11.30;8.60;;;21.00;45.70;;;;;;5055424;28;20447;-70
2022/06/27 07:22:50;;;;;;;17.47;9.67;;;21.40;43.20;;;;;;5055336;28;20457;-69
2022/06/27 07:25:17;;;;;;;13.10;9.20;;;21.60;41.40;;;;;;5054676;28;20409;-69
2022/06/27 07:27:43;;;;;;;14.17;9.00;;;21.70;41.10;;;;;;5054572;28;20463;-69
2022/06/27 07:30:11;;;;;;;12.80;10.10;;;21.80;39.70;;;;;;5056005;28;20407;-69
2022/06/27 07:32:39;;;;;;;9.73;8.30;;;21.80;39.60;;;;;;5055548;28;20411;-69
2022/06/27 07:35:05;;;;;;;13.23;9.30;;;22.00;39.10;;;;;;5056083;28;20784;-70
2022/06/27 07:37:32;;;;;;;13.43;8.23;;;22.10;38.90;;;;;;5054218;28;20424;-70
2022/06/27 07:39:57;;;;;;;9.17;8.27;;;22.10;39.90;;;;;;5054702;28;20411;-69
2022/06/27 07:42:23;;;;;;;14.00;8.80;;;22.20;39.50;;;;;;5054024;28;20407;-70
2022/06/27 07:44:49;;;;;;;12.17;10.00;;;22.10;39.80;;;;;;5053725;28;20177;-70
2022/06/27 07:47:15;;;;;;;16.93;9.10;;;22.10;40.00;;;;;;5054455;28;20216;-69
2022/06/27 07:49:41;;;;;;;11.23;8.23;;;22.00;40.40;;;;;;5056117;28;20413;-70
2022/06/27 07:52:06;;;;;;;13.00;9.40;;;22.10;40.20;;;;;;5058302;28;20183;-69
2022/06/27 07:54:32;;;;;;;10.50;8.27;;;22.20;39.00;;;;;;5059332;28;20280;-69
2022/06/27 07:56:58;;;;;;;12.90;7.73;;;22.50;39.30;;;;;;5054797;28;20213;-70
2022/06/27 07:59:26;;;;;;;16.43;9.07;;;22.70;37.10;;;;;;5054059;28;20167;-69
2022/06/27 08:01:52;;;;;;;13.77;9.40;;;23.10;34.70;;;;;;5053590;28;20205;-70
2022/06/27 08:04:18;;;;;;;10.93;8.83;;;23.30;34.30;;;;;;5054747;28;20414;-70
2022/06/27 08:06:46;;;;;;;14.93;11.23;;;23.30;33.40;;;;;;5053912;28;20806;-70
2022/06/27 08:09:12;;;;;;;14.17;10.47;;;23.30;32.90;;;;;;5054206;28;20429;-69
2022/06/27 08:11:43;;;;;;;13.50;10.27;;;23.10;32.80;;;;;;5054208;28;20410;-70
2022/06/27 08:14:12;;;;;;;13.57;10.37;;;22.80;33.70;;;;;;5057176;28;20202;-70
2022/06/27 08:16:39;;;;;;;15.40;10.83;;;22.50;36.00;;;;;;5054425;28;20769;-70
2022/06/27 08:19:06;;;;;;;16.67;10.53;;;22.30;37.10;;;;;;5053356;28;20928;-70
2022/06/27 08:21:34;;;;;;;14.27;11.20;;;22.00;37.60;;;;;;5053387;28;20443;-68
2022/06/27 08:24:01;;;;;;;11.70;9.80;;;21.80;36.90;;;;;;5053343;28;20431;-69
2022/06/27 08:26:28;;;;;;;12.70;9.47;;;21.70;37.20;;;;;;5052970;28;20434;-70
2022/06/27 08:28:56;;;;;;;13.57;8.93;;;21.60;37.80;;;;;;5052804;28;20402;-71
2022/06/27 08:31:22;;;;;;;14.30;9.50;;;21.50;39.50;;;;;;5059417;28;20413;-69
2022/06/27 08:33:51;;;;;;;13.17;9.43;;;21.50;39.20;;;;;;5060118;28;20470;-69
2022/06/27 08:36:18;;;;;;;18.57;9.70;;;21.40;38.70;;;;;;5059395;28;20428;-69
2022/06/27 08:38:50;;;;;;;15.17;10.47;;;21.30;40.30;;;;;;5055450;28;20420;-70
2022/06/27 08:41:20;;;;;;;13.63;8.60;;;21.20;40.80;;;;;;5054789;28;20414;-70
2022/06/27 08:43:47;;;;;;;12.37;9.60;;;21.10;41.30;;;;;;5056041;28;20443;-69
2022/06/27 08:46:15;;;;;;;16.80;10.53;;;20.90;42.80;;;;;;5058887;28;20466;-70
2022/06/27 08:48:42;;;;;;;17.97;11.63;;;20.80;44.70;;;;;;5055167;28;20429;-70
2022/06/27 08:51:09;;;;;;;22.43;11.13;;;20.50;44.90;;;;;;5056042;28;20425;-69
2022/06/27 08:53:37;;;;;;;16.30;11.57;;;20.50;46.10;;;;;;5053665;28;20493;-69
2022/06/27 08:56:03;;;;;;;17.47;11.43;;;20.60;48.30;;;;;;5053381;28;20391;-71
2022/06/27 08:58:29;;;;;;;19.60;12.37;;;20.70;47.20;;;;;;5052989;28;20396;-69
2022/06/27 09:00:56;;;;;;;24.93;15.40;;;20.80;44.70;;;;;;5053629;28;20413;-70
2022/06/27 09:03:23;;;;;;;38.30;17.33;;;20.90;41.90;;;;;;5056703;28;20414;-70
2022/06/27 09:05:59;;;;;;;23.00;16.93;;;21.00;41.80;;;;;;5058640;28;20502;-70
2022/06/27 09:08:28;;;;;;;24.20;14.87;;;21.00;40.90;;;;;;5062566;28;20418;-69
2022/06/27 09:10:55;;;;;;;25.40;14.70;;;21.00;41.10;;;;;;5063498;28;20431;-70
2022/06/27 09:13:20;;;;;;;25.10;14.63;;;21.10;42.10;;;;;;5056582;28;20458;-70
2022/06/27 09:15:55;;;;;;;26.20;14.80;;;21.10;42.60;;;;;;5056344;28;20976;-70
2022/06/27 09:18:27;;;;;;;24.17;14.40;;;21.10;41.50;;;;;;5055604;28;20195;-69
2022/06/27 09:21:13;;;;;;;22.53;12.70;;;21.20;40.70;;;;;;5054847;28;21347;-69
2022/06/27 09:23:47;;;;;;;17.37;12.37;;;21.40;40.80;;;;;;5055375;28;20865;-69
2022/06/27 09:26:14;;;;;;;22.60;14.40;;;21.50;40.00;;;;;;5053658;28;20464;-70
2022/06/27 09:28:42;;;;;;;24.80;15.17;;;21.60;39.50;;;;;;5054211;28;20828;-70
2022/06/27 09:31:10;;;;;;;22.50;16.10;;;21.70;39.20;;;;;;5054770;28;20442;-70
2022/06/27 09:33:38;;;;;;;29.93;17.60;;;21.80;38.40;;;;;;5056432;28;20454;-69
2022/06/27 09:36:15;;;;;;;22.27;16.20;;;21.80;38.40;;;;;;5055490;28;20416;-69
2022/06/27 09:38:43;;;;;;;28.67;20.10;;;21.80;38.30;;;;;;5058092;28;20423;-69
2022/06/27 09:41:13;;;;;;;33.97;20.10;;;22.00;35.50;;;;;;5059767;28;20839;-71
2022/06/27 09:43:46;;;;;;;30.10;17.67;;;22.20;35.90;;;;;;5056409;28;20417;-70
2022/06/27 09:46:13;;;;;;;19.40;13.67;;;22.60;35.00;;;;;;5057191;28;20468;-69
2022/06/27 09:48:44;;;;;;;19.60;12.70;;;22.90;32.80;;;;;;5057329;28;20852;-69
2022/06/27 09:51:15;;;;;;;17.50;13.63;;;22.90;32.20;;;;;;5056089;28;20495;-69
2022/06/27 09:53:48;;;;;;;21.93;14.30;;;23.20;31.20;;;;;;5058822;28;20516;-71
2022/06/27 09:56:15;;;;;;;19.90;12.47;;;23.60;30.90;;;;;;5062439;28;20538;-70
2022/06/27 09:58:41;;;;;;;17.70;11.20;;;24.10;28.40;;;;;;5067087;28;20496;-69
2022/06/27 10:01:09;;;;;;;13.50;11.17;;;24.20;27.40;;;;;;5062493;28;20413;-70
2022/06/27 10:03:36;;;;;;;20.10;11.20;;;24.20;26.40;;;;;;5061919;28;20443;-69
2022/06/27 10:06:03;;;;;;;19.13;11.47;;;24.40;25.70;;;;;;5062319;28;20436;-69
2022/06/27 10:08:32;;;;;;;17.63;11.50;;;24.40;25.10;;;;;;5065555;28;20416;-70
2022/06/27 10:11:06;;;;;;;17.23;11.97;;;24.10;26.20;;;;;;5061390;28;20417;-70
2022/06/27 10:13:33;;;;;;;22.10;12.30;;;24.20;25.30;;;;;;5061067;28;20555;-70
2022/06/27 10:16:05;;;;;;;17.50;12.63;;;24.30;24.30;;;;;;5062373;28;20769;-69
2022/06/27 10:18:50;;;;;;;22.63;12.70;;;24.40;23.80;;;;;;5062484;28;20386;-70
2022/06/27 10:21:35;;;;;;;20.03;10.67;;;24.30;24.30;;;;;;5058747;28;20409;-71
2022/06/27 10:24:19;;;;;;;24.03;10.07;;;24.10;25.10;;;;;;5058569;28;20394;-69
2022/06/27 10:26:46;;;;;;;14.23;9.30;;;24.10;25.90;;;;;;5061600;28;20807;-69
2022/06/27 10:29:27;;;;;;;14.03;10.00;;;24.00;25.20;;;;;;5062179;28;20413;-69
2022/06/27 10:31:53;;;;;;;14.90;10.90;;;24.00;26.10;;;;;;5061195;28;20413;-69
2022/06/27 10:34:54;;;;;;;15.60;11.40;;;24.00;25.60;;;;;;5061694;28;20475;-70
2022/06/27 10:37:24;;;;;;;18.80;11.57;;;23.90;25.50;;;;;;5051713;28;20291;-70
2022/06/27 10:39:54;;;;;;;15.30;11.53;;;23.80;26.10;;;;;;5063751;28;20540;-69
2022/06/27 10:42:53;;;;;;;16.90;12.20;;;23.60;26.40;;;;;;5063205;28;20850;-70
2022/06/27 10:45:26;;;;;;;15.10;11.23;;;23.20;27.80;;;;;;5046375;28;20437;-73
2022/06/27 10:48:01;;;;;;;16.37;10.87;;;23.00;27.40;;;;;;5062900;28;20472;-76
2022/06/27 10:50:38;;;;;;;14.57;10.90;;;22.90;28.20;;;;;;5057222;28;20854;-73
2022/06/27 10:53:19;;;;;;;23.10;11.40;;;22.70;28.90;;;;;;5052437;28;20479;-73
2022/06/27 10:55:45;;;;;;;14.63;10.47;;;22.70;29.80;;;;;;5063597;28;20531;-71
2022/06/27 10:58:22;;;;;;;20.03;11.50;;;22.70;30.20;;;;;;5066800;28;20464;-70
2022/06/27 11:00:48;;;;;;;22.03;10.47;;;22.60;31.00;;;;;;5076209;28;20816;-70
2022/06/27 11:03:26;;;;;;;14.27;11.20;;;22.60;31.90;;;;;;5073951;28;20423;-71
2022/06/27 11:05:52;;;;;;;15.53;9.87;;;22.60;31.50;;;;;;5056359;28;20444;-71
2022/06/27 11:08:19;;;;;;;23.93;13.33;;;22.60;32.80;;;;;;5053559;28;20439;-72
2022/06/27 11:10:45;;;;;;;22.93;13.60;;;22.60;32.20;;;;;;5058041;28;20445;-72
2022/06/27 11:13:31;;;;;;;20.50;14.20;;;22.60;34.60;;;;;;5072571;28;20482;-71
2022/06/27 11:15:56;;;;;;;19.87;15.20;;;22.60;36.90;;;;;;5062878;28;20420;-71
2022/06/27 11:18:22;;;;;;;22.10;14.43;;;22.40;37.00;;;;;;5052403;28;20517;-70
2022/06/27 11:20:47;;;;;;;17.80;14.90;;;22.30;37.70;;;;;;5051263;28;20256;-71
2022/06/27 11:23:13;;;;;;;22.60;14.17;;;22.30;39.50;;;;;;5054245;28;20208;-77
2022/06/27 11:25:41;;;;;;;21.33;15.20;;;22.20;40.40;;;;;;5060351;28;20196;-78
2022/06/27 11:33:37;;;;;;;20.23;14.63;;;22.00;42.00;;;;;;5048184;28;20495;-76
2022/06/27 11:36:04;;;;;;;21.73;16.37;;;22.00;43.10;;;;;;5053598;28;20799;-72
2022/06/27 11:38:32;;;;;;;22.93;16.30;;;22.10;39.80;;;;;;5058977;28;20460;-72
2022/06/27 11:41:02;;;;;;;21.40;14.67;;;22.20;38.40;;;;;;5067163;28;20872;-73
2022/06/27 11:43:53;;;;;;;28.30;15.30;;;22.50;38.40;;;;;;5056239;28;20448;-72
2022/06/27 11:46:31;;;;;;;22.70;15.30;;;22.80;36.10;;;;;;5054669;28;20522;-73
2022/06/27 11:48:58;;;;;;;21.10;14.77;;;23.10;33.70;;;;;;5064470;28;20423;-73
2022/06/27 11:51:30;;;;;;;22.13;16.03;;;23.40;34.20;;;;;;5073586;28;20420;-74
2022/06/27 11:54:00;;;;;;;26.23;14.43;;;23.80;33.40;;;;;;5073434;28;20460;-73
2022/06/27 11:56:28;;;;;;;34.90;20.07;;;24.10;32.40;;;;;;5059023;28;20455;-75
2022/06/27 11:58:59;;;;;;;24.83;17.33;;;24.50;28.60;;;;;;5047908;28;20777;-73
2022/06/27 12:01:25;;;;;;;20.97;15.90;;;24.60;26.90;;;;;;5051592;28;20430;-76
2022/06/27 12:04:11;;;;;;;22.00;14.50;;;24.70;26.20;;;;;;5054796;28;20436;-78
2022/06/27 12:06:41;;;;;;;25.53;15.60;;;25.20;24.70;;;;;;5047395;28;20467;-75
2022/06/27 12:09:07;;;;;;;22.90;14.10;;;25.50;24.90;;;;;;5051335;28;20558;-74
2022/06/27 12:11:33;;;;;;;20.80;16.37;;;26.00;23.10;;;;;;5064518;28;20470;-75
2022/06/27 12:14:00;;;;;;;27.23;17.03;;;26.20;21.70;;;;;;5053671;28;20465;-73
2022/06/27 12:16:26;;;;;;;18.30;15.10;;;26.20;21.80;;;;;;5057466;28;20503;-76
2022/06/27 12:18:52;;;;;;;24.20;17.70;;;26.20;20.20;;;;;;5049185;28;20465;-75
2022/06/27 12:21:18;;;;;;;24.73;17.00;;;25.90;20.30;;;;;;5060712;28;20435;-74
2022/06/27 12:23:44;;;;;;;27.20;17.77;;;25.70;20.20;;;;;;5055053;28;20197;-75
2022/06/27 12:26:10;;;;;;;28.00;18.63;;;25.60;20.90;;;;;;5061061;28;20479;-76
2022/06/27 12:28:36;;;;;;;20.87;15.97;;;25.30;21.50;;;;;;5053511;28;20185;-75
2022/06/27 12:31:02;;;;;;;25.63;18.67;;;25.00;24.00;;;;;;5060971;28;20498;-75
2022/06/27 12:33:28;;;;;;;23.30;17.47;;;24.50;24.70;;;;;;5073181;28;20460;-74
2022/06/27 12:35:55;;;;;;;23.03;15.80;;;24.20;26.90;;;;;;5072426;28;20293;-71
2022/06/27 12:38:21;;;;;;;27.10;15.50;;;24.10;26.60;;;;;;5072549;28;20811;-73
2022/06/27 12:40:47;;;;;;;21.17;15.07;;;24.30;25.80;;;;;;5055602;28;20243;-75
2022/06/27 12:43:12;;;;;;;22.70;15.53;;;24.70;22.40;;;;;;5050932;28;20764;-74
2022/06/27 12:45:38;;;;;;;25.93;14.50;;;25.10;21.50;;;;;;5058697;28;20604;-76